Time;durP1;ratioP1;P1;durP2;ratioP2;P2;SDS_P1;SDS_P2;PMS_P1;PMS_P2;Temp;Humidity;BMP_temperature;BMP_pressure;BME280_temperature;BME280_humidity;BME280_pressure;Samples;Min_cycle;Max_cycle;Signal;HPM_P1;HPM_P2
2023/03/28 00:01:07;;;;;;;;;3.75;2.50;;;;;10.21;37.58;102249.44;5075822;27;45506;-73
2023/03/28 00:03:35;;;;;;;;;1.75;1.75;;;;;10.16;37.64;102240.25;5077546;28;45559;-73
2023/03/28 00:06:02;;;;;;;;;3.00;2.00;;;;;10.15;37.50;102235.78;5070633;28;45519;-73
2023/03/28 00:08:28;;;;;;;;;1.00;1.00;;;;;10.10;37.39;102229.28;5068449;28;46067;-74
2023/03/28 00:11:17;;;;;;;;;2.00;2.00;;;;;10.14;37.43;102231.25;5073362;27;45467;-74
2023/03/28 00:13:44;;;;;;;;;3.75;2.75;;;;;10.22;37.80;102242.34;5061995;27;45259;-74
2023/03/28 00:16:11;;;;;;;;;1.00;1.00;;;;;10.08;37.78;102213.19;5074295;27;45520;-75
2023/03/28 00:18:37;;;;;;;;;2.50;2.50;;;;;10.24;38.03;102249.59;5076157;28;45465;-74
2023/03/28 00:21:06;;;;;;;;;1.00;1.00;;;;;10.17;37.86;102235.84;5073727;28;45386;-76
2023/03/28 00:23:34;;;;;;;;;3.50;3.50;;;;;10.26;37.23;102257.69;5066010;28;45358;-75
2023/03/28 00:26:06;;;;;;;;;2.00;2.00;;;;;10.10;37.29;102230.19;5072720;27;45512;-76
2023/03/28 00:28:34;;;;;;;;;2.00;2.00;;;;;10.17;37.67;102246.53;5067763;28;48261;-73
2023/03/28 00:31:06;;;;;;;;;2.00;2.00;;;;;10.10;37.72;102238.19;5070220;28;45535;-74
2023/03/28 00:33:32;;;;;;;;;2.00;2.00;;;;;9.90;37.68;102197.13;5073279;27;45477;-74
2023/03/28 00:35:58;;;;;;;;;2.25;2.00;;;;;10.09;37.73;102247.03;5069550;27;45262;-76
2023/03/28 00:38:23;;;;;;;;;3.75;2.75;;;;;10.11;37.80;102250.72;5067369;28;45250;-73
2023/03/28 00:40:49;;;;;;;;;1.25;1.25;;;;;10.09;37.85;102241.69;5072822;27;45279;-73
2023/03/28 00:43:14;;;;;;;;;1.00;1.00;;;;;10.07;38.44;102238.03;5069357;27;45576;-73
2023/03/28 00:45:41;;;;;;;;;2.00;2.00;;;;;9.98;37.86;102221.53;5071359;28;45547;-75
2023/03/28 00:48:12;;;;;;;;;2.50;2.50;;;;;10.00;37.89;102243.91;5073127;27;45475;-75
2023/03/28 00:50:45;;;;;;;;;2.00;2.00;;;;;9.79;38.13;102211.63;5069503;28;45341;-77
2023/03/28 00:53:18;;;;;;;;;3.75;3.75;;;;;9.96;38.51;102239.22;5065211;28;45425;-76
2023/03/28 00:55:56;;;;;;;;;4.00;3.00;;;;;9.88;38.22;102229.88;5071553;28;45361;-76
2023/03/28 00:58:25;;;;;;;;;2.00;2.00;;;;;10.00;37.86;102249.25;5070606;28;46139;-75
2023/03/28 01:00:53;;;;;;;;;4.00;3.00;;;;;9.83;38.03;102223.41;5063352;28;46157;-76
2023/03/28 01:03:22;;;;;;;;;2.00;2.00;;;;;9.85;37.51;102233.34;5071561;28;45574;-76
2023/03/28 01:05:47;;;;;;;;;2.25;2.25;;;;;9.72;37.78;102207.72;5066428;28;45536;-75
2023/03/28 01:08:22;;;;;;;;;3.00;2.00;;;;;9.94;37.99;102251.59;5067822;28;45616;-75
2023/03/28 01:10:49;;;;;;;;;3.00;1.50;;;;;9.94;38.05;102252.50;5069739;28;45824;-75
2023/03/28 01:13:18;;;;;;;;;2.75;2.50;;;;;9.94;37.38;102241.81;5067333;28;45554;-75
2023/03/28 01:15:44;;;;;;;;;2.00;2.00;;;;;10.02;37.96;102252.91;5069576;28;45608;-75
2023/03/28 01:18:11;;;;;;;;;2.75;2.75;;;;;10.05;37.72;102237.03;5073807;28;45440;-76
2023/03/28 01:20:51;;;;;;;;;2.25;2.25;;;;;10.04;38.00;102239.63;5072466;28;45359;-75
2023/03/28 01:23:54;;;;;;;;;2.50;2.50;;;;;10.07;37.55;102232.69;5076482;28;45471;-75
2023/03/28 01:26:43;;;;;;;;;3.75;2.75;;;;;10.11;37.79;102237.38;5075594;27;45351;-74
2023/03/28 01:29:46;;;;;;;;;2.00;2.00;;;;;10.17;37.49;102233.19;5067182;28;46222;-75
2023/03/28 01:32:50;;;;;;;;;2.00;2.00;;;;;10.21;37.67;102225.38;5077207;27;45360;-75
2023/03/28 01:35:53;;;;;;;;;4.50;4.00;;;;;10.22;37.77;102224.56;5083639;27;45500;-75
2023/03/28 01:38:24;;;;;;;;;3.00;3.00;;;;;9.90;37.95;102182.81;5066771;28;45405;-76
2023/03/28 01:41:16;;;;;;;;;2.00;2.00;;;;;10.10;37.84;102210.59;5076103;28;46493;-73
2023/03/28 01:44:10;;;;;;;;;1.25;1.25;;;;;9.93;37.99;102185.66;5071796;27;45486;-77
2023/03/28 01:47:04;;;;;;;;;3.25;2.00;;;;;9.78;38.06;102170.69;5075925;28;45490;-74
2023/03/28 01:49:38;;;;;;;;;3.00;3.00;;;;;9.85;38.64;102192.34;5054645;27;45520;-77
2023/03/28 01:52:28;;;;;;;;;2.50;2.50;;;;;9.80;37.92;102194.81;5063396;28;46328;-77
2023/03/28 01:55:13;;;;;;;;;2.00;1.75;;;;;9.73;39.00;102190.91;5053996;28;45613;-77
2023/03/28 01:58:14;;;;;;;;;3.50;2.50;;;;;9.77;38.57;102183.97;5064374;28;45661;-75
2023/03/28 02:00:44;;;;;;;;;3.25;3.25;;;;;9.72;38.42;102173.03;5040835;28;45667;-76
2023/03/28 02:03:23;;;;;;;;;4.00;2.75;;;;;9.62;39.37;102153.78;5075641;28;45406;-78
2023/03/28 02:05:52;;;;;;;;;4.50;3.00;;;;;9.72;39.09;102165.03;5076046;27;45684;-78
2023/03/28 02:08:19;;;;;;;;;3.75;3.50;;;;;9.72;38.72;102169.47;5062155;28;45521;-76
2023/03/28 02:10:45;;;;;;;;;1.00;1.00;;;;;9.71;38.58;102176.53;5074730;28;45388;-76
2023/03/28 02:13:18;;;;;;;;;2.00;2.00;;;;;9.66;39.14;102154.03;5070558;28;46257;-75
2023/03/28 02:15:49;;;;;;;;;3.25;2.00;;;;;9.48;38.58;102124.63;5069466;28;45404;-78
2023/03/28 02:18:20;;;;;;;;;2.00;2.00;;;;;9.48;39.28;102137.06;5073204;28;45295;-76
2023/03/28 02:20:52;;;;;;;;;2.50;2.25;;;;;9.30;39.01;102107.63;5076430;27;45607;-76
2023/03/28 02:23:22;;;;;;;;;4.00;3.25;;;;;9.66;38.72;102170.03;5064595;28;45513;-76
2023/03/28 02:25:48;;;;;;;;;5.00;3.00;;;;;9.67;39.30;102177.22;5070192;27;45277;-77
2023/03/28 02:28:16;;;;;;;;;5.25;1.75;;;;;9.65;38.90;102168.22;5072772;28;45472;-77
2023/03/28 02:30:41;;;;;;;;;3.50;2.75;;;;;9.59;39.04;102162.56;5067752;27;45391;-77
2023/03/28 02:33:36;;;;;;;;;2.00;2.00;;;;;9.58;39.44;102161.63;5073784;28;46203;-76
2023/03/28 02:36:01;;;;;;;;;7.25;2.50;;;;;9.49;39.54;102163.81;5075227;27;45299;-75
2023/03/28 02:38:53;;;;;;;;;3.50;3.00;;;;;9.44;40.12;102156.38;5072957;27;45480;-77
2023/03/28 02:41:27;;;;;;;;;2.25;2.25;;;;;9.48;39.38;102153.06;5059297;28;45386;-77
2023/03/28 02:44:27;;;;;;;;;3.00;2.00;;;;;9.50;39.20;102144.31;5068600;28;46195;-74
2023/03/28 02:47:27;;;;;;;;;15.75;11.25;;;;;9.51;39.46;102130.13;5065304;28;45369;-77
2023/03/28 02:50:08;;;;;;;;;2.00;2.00;;;;;9.58;39.01;102139.34;5065983;28;45481;-75
2023/03/28 02:52:36;;;;;;;;;4.25;3.00;;;;;9.59;38.97;102131.44;5068509;27;45496;-75
2023/03/28 02:55:02;;;;;;;;;2.25;2.25;;;;;9.56;39.38;102125.94;5074829;28;45401;-76
2023/03/28 02:57:35;;;;;;;;;3.00;3.00;;;;;9.57;39.49;102117.13;5073814;28;46054;-77
2023/03/28 03:00:11;;;;;;;;;3.00;1.75;;;;;9.62;39.50;102117.34;5059812;28;45542;-75
2023/03/28 03:02:37;;;;;;;;;4.00;4.00;;;;;9.52;39.58;102107.00;5063258;28;45496;-75
2023/03/28 03:05:04;;;;;;;;;0.50;0.00;;;;;9.61;39.54;102120.84;5075169;28;46646;-76
2023/03/28 03:07:30;;;;;;;;;2.00;2.00;;;;;9.59;39.76;102123.44;5073192;27;45451;-77
2023/03/28 03:09:56;;;;;;;;;3.00;3.00;;;;;9.51;39.35;102105.19;5073974;28;45536;-76
2023/03/28 03:12:22;;;;;;;;;2.75;2.75;;;;;9.22;39.73;102048.56;5070963;28;45516;-76
2023/03/28 03:14:49;;;;;;;;;2.00;2.00;;;;;9.50;39.24;102106.97;5068337;27;45499;-77
2023/03/28 03:17:19;;;;;;;;;4.75;4.50;;;;;9.44;40.58;102100.34;5064511;27;45280;-76
2023/03/28 03:19:44;;;;;;;;;3.00;1.75;;;;;9.36;40.33;102103.56;5070193;28;46145;-76
2023/03/28 03:22:11;;;;;;;;;2.50;2.50;;;;;9.20;40.05;102099.13;5068359;28;45625;-75
2023/03/28 03:24:37;;;;;;;;;3.50;3.50;;;;;9.09;41.15;102100.34;5065549;28;46267;-77
2023/03/28 03:27:03;;;;;;;;;3.00;3.00;;;;;9.07;41.40;102088.66;5065280;28;45462;-76
2023/03/28 03:29:28;;;;;;;;;3.00;3.00;;;;;9.09;41.55;102096.72;5072417;27;45607;-75
2023/03/28 03:31:53;;;;;;;;;4.75;3.25;;;;;9.01;41.88;102080.34;5066838;27;45437;-76
2023/03/28 03:34:19;;;;;;;;;3.25;1.75;;;;;8.96;41.03;102057.81;5074283;27;45473;-78
2023/03/28 03:36:45;;;;;;;;;3.25;3.25;;;;;8.99;41.53;102072.25;5074219;27;45448;-76
2023/03/28 03:39:10;;;;;;;;;3.25;3.25;;;;;8.62;41.84;102003.63;5067598;27;45537;-78
2023/03/28 03:41:35;;;;;;;;;1.50;1.50;;;;;8.91;41.23;102073.59;5070689;28;45632;-77
2023/03/28 03:44:01;;;;;;;;;0.25;0.25;;;;;8.76;42.68;102070.06;5071500;28;46119;-77
2023/03/28 03:46:26;;;;;;;;;3.25;1.75;;;;;8.69;42.54;102071.47;5065901;27;46307;-76
2023/03/28 03:48:51;;;;;;;;;4.00;2.25;;;;;8.68;42.74;102075.00;5074883;27;45511;-76
2023/03/28 03:51:17;;;;;;;;;4.50;3.25;;;;;8.68;42.24;102072.34;5074730;27;45429;-75
2023/03/28 03:53:43;;;;;;;;;3.25;2.50;;;;;8.55;42.33;102048.50;5072458;28;47597;-76
2023/03/28 03:56:09;;;;;;;;;11.00;10.75;;;;;8.79;41.92;102081.84;5074784;27;45581;-77
2023/03/28 03:58:34;;;;;;;;;2.00;2.00;;;;;8.75;42.59;102062.94;5074148;27;48163;-76
2023/03/28 04:01:00;;;;;;;;;3.50;2.25;;;;;8.87;42.27;102087.56;5072436;27;45522;-76
2023/03/28 04:03:26;;;;;;;;;3.00;3.00;;;;;8.89;42.43;102074.31;5069749;28;46388;-77
2023/03/28 04:05:53;;;;;;;;;1.00;1.00;;;;;8.86;41.83;102072.44;5066728;28;45475;-78
2023/03/28 04:08:19;;;;;;;;;1.75;1.75;;;;;8.96;42.22;102073.81;5068960;28;45458;-77
2023/03/28 04:10:45;;;;;;;;;5.25;3.50;;;;;8.89;42.13;102051.25;5074183;28;45563;-77
2023/03/28 04:13:10;;;;;;;;;2.25;2.00;;;;;9.05;41.87;102074.31;5072753;28;46174;-77
2023/03/28 04:15:36;;;;;;;;;2.00;2.00;;;;;8.64;42.41;102023.25;5068871;28;45462;-76
2023/03/28 04:18:03;;;;;;;;;3.50;2.75;;;;;8.91;42.63;102070.00;5068423;27;45734;-77
2023/03/28 04:20:28;;;;;;;;;2.00;2.00;;;;;8.83;42.27;102059.84;5064293;28;45369;-77
2023/03/28 04:22:54;;;;;;;;;3.00;3.00;;;;;8.88;42.94;102077.84;5069976;27;47109;-76
2023/03/28 04:25:20;;;;;;;;;3.00;3.00;;;;;8.44;42.85;102019.50;5069424;27;45567;-76
2023/03/28 04:27:46;;;;;;;;;4.50;3.00;;;;;8.71;42.90;102068.91;5073198;27;45684;-76
2023/03/28 04:30:12;;;;;;;;;3.00;3.00;;;;;8.74;43.26;102069.97;5064510;27;45452;-77
2023/03/28 04:32:39;;;;;;;;;2.50;2.50;;;;;8.65;42.75;102062.41;5064408;27;48343;-76
2023/03/28 04:35:05;;;;;;;;;2.75;2.75;;;;;8.59;43.30;102051.41;5070151;27;45538;-76
2023/03/28 04:37:31;;;;;;;;;7.25;5.00;;;;;8.71;43.20;102068.91;5065435;27;45894;-76
2023/03/28 04:39:57;;;;;;;;;4.00;4.00;;;;;8.72;43.47;102063.66;5065882;27;45449;-77
2023/03/28 04:42:22;;;;;;;;;6.75;3.50;;;;;8.56;43.09;102024.59;5072393;27;45559;-76
2023/03/28 04:44:47;;;;;;;;;7.50;6.00;;;;;8.72;43.18;102047.69;5063853;27;45701;-76
2023/03/28 04:47:14;;;;;;;;;10.00;6.00;;;;;8.73;43.67;102032.59;5068952;28;45461;-77
2023/03/28 04:49:39;;;;;;;;;6.00;4.25;;;;;8.85;44.02;102059.94;5075705;27;45558;-77
2023/03/28 04:52:05;;;;;;;;;3.75;2.00;;;;;8.80;42.94;102058.75;5075654;28;45494;-77
2023/03/28 04:54:31;;;;;;;;;3.00;3.00;;;;;8.61;43.33;102028.47;5074127;28;45559;-76
2023/03/28 04:56:56;;;;;;;;;6.00;5.00;;;;;8.85;43.16;102070.59;5071714;28;45271;-76
2023/03/28 04:59:22;;;;;;;;;6.00;5.00;;;;;8.56;44.87;102015.69;5077336;27;45361;-76
2023/03/28 05:01:50;;;;;;;;;3.50;3.00;;;;;8.79;44.48;102051.59;5077024;27;45679;-78
2023/03/28 05:04:17;;;;;;;;;3.75;3.75;;;;;8.81;44.10;102064.19;5075954;28;45352;-78
2023/03/28 05:06:47;;;;;;;;;5.00;5.00;;;;;8.83;44.34;102070.50;5077357;27;45590;-77
2023/03/28 05:09:13;;;;;;;;;5.25;4.00;;;;;8.73;44.55;102056.56;5074676;28;45438;-78
2023/03/28 05:11:39;;;;;;;;;4.00;4.00;;;;;8.88;45.68;102073.44;5074674;28;46692;-77
2023/03/28 05:14:06;;;;;;;;;2.75;2.75;;;;;8.89;44.50;102077.91;5071733;28;45760;-77
2023/03/28 05:16:34;;;;;;;;;5.50;2.50;;;;;8.74;45.17;102043.34;5073374;27;45627;-77
2023/03/28 05:19:00;;;;;;;;;3.25;3.00;;;;;8.82;44.68;102076.66;5070750;28;45437;-79
2023/03/28 05:21:25;;;;;;;;;6.00;4.00;;;;;8.34;44.87;102002.91;5076090;27;45389;-76
2023/03/28 05:23:51;;;;;;;;;10.00;5.50;;;;;8.60;44.80;102058.56;5076301;28;45423;-78
2023/03/28 05:26:23;;;;;;;;;5.75;3.00;;;;;8.49;44.93;102046.41;5080223;27;47918;-79
2023/03/28 05:28:48;;;;;;;;;6.75;4.25;;;;;8.64;45.53;102067.66;5067670;28;45556;-78
2023/03/28 05:31:16;;;;;;;;;5.75;4.00;;;;;8.62;44.90;102059.56;5076814;27;45450;-78
2023/03/28 05:33:41;;;;;;;;;6.00;5.00;;;;;8.78;44.83;102076.44;5076218;28;45373;-79
2023/03/28 05:36:07;;;;;;;;;4.25;3.50;;;;;8.73;45.32;102069.91;5076942;27;45548;-79
2023/03/28 05:38:33;;;;;;;;;8.25;6.00;;;;;8.71;45.30;102056.53;5065095;27;45585;-78
2023/03/28 05:40:58;;;;;;;;;5.00;4.50;;;;;8.78;45.92;102064.00;5084960;27;45472;-78
2023/03/28 05:43:24;;;;;;;;;6.75;5.00;;;;;8.80;45.04;102066.75;5063247;27;45552;-79
2023/03/28 05:45:49;;;;;;;;;12.75;9.50;;;;;8.71;45.37;102068.91;5078485;28;45383;-77
2023/03/28 05:48:15;;;;;;;;;10.50;8.25;;;;;8.70;44.80;102070.66;5076389;27;45347;-79
2023/03/28 05:50:41;;;;;;;;;7.75;7.75;;;;;8.61;45.61;102057.75;5072213;27;45228;-78
2023/03/28 05:53:11;;;;;;;;;6.00;6.00;;;;;8.71;45.40;102076.91;5076749;27;45357;-78
2023/03/28 05:55:36;;;;;;;;;7.50;6.50;;;;;8.63;45.28;102061.41;5071706;28;45309;-79
2023/03/28 05:58:03;;;;;;;;;5.25;5.25;;;;;8.75;45.94;102076.25;5066871;28;45591;-78
2023/03/28 06:00:28;;;;;;;;;11.75;9.25;;;;;8.64;46.71;102071.22;5074319;27;46463;-77
2023/03/28 06:02:54;;;;;;;;;9.25;9.25;;;;;8.59;45.85;102062.06;5070688;28;45643;-79
2023/03/28 06:05:20;;;;;;;;;11.25;6.00;;;;;8.56;46.08;102053.00;5065648;27;45574;-78
2023/03/28 06:07:52;;;;;;;;;7.50;6.25;;;;;8.59;45.87;102040.75;5066997;28;45387;-81
2023/03/28 06:10:18;;;;;;;;;10.50;10.50;;;;;8.84;45.59;102075.00;5073060;27;48234;-77
2023/03/28 06:12:44;;;;;;;;;29.50;27.25;;;;;8.70;46.51;102046.69;5066778;27;45724;-79
2023/03/28 06:15:14;;;;;;;;;10.75;9.00;;;;;8.83;46.52;102078.50;5073704;28;45290;-79
2023/03/28 06:17:45;;;;;;;;;6.25;6.00;;;;;8.43;45.61;102006.09;5074504;27;45532;-78
2023/03/28 06:20:11;;;;;;;;;9.75;7.75;;;;;8.56;45.85;102034.34;5086647;27;46818;-80
2023/03/28 06:22:37;;;;;;;;;10.00;6.75;;;;;8.92;46.48;102096.72;5074044;28;45357;-77
2023/03/28 06:25:04;;;;;;;;;6.25;6.25;;;;;8.97;45.91;102099.66;5084347;28;45448;-78
2023/03/28 06:27:36;;;;;;;;;9.50;8.50;;;;;8.81;46.11;102065.91;5072248;28;45480;-77
2023/03/28 06:30:03;;;;;;;;;9.00;6.50;;;;;9.03;45.78;102098.22;5079809;28;45506;-78
2023/03/28 06:32:29;;;;;;;;;11.50;9.75;;;;;8.52;45.19;102005.72;5065950;27;45555;-79
2023/03/28 06:34:54;;;;;;;;;11.00;11.00;;;;;8.91;46.21;102072.66;5076270;28;45564;-78
2023/03/28 06:37:20;;;;;;;;;12.25;10.00;;;;;9.10;45.20;102098.56;5076034;27;45714;-78
2023/03/28 06:39:45;;;;;;;;;10.75;7.75;;;;;9.07;46.10;102096.66;5085349;27;45633;-79
2023/03/28 06:42:11;;;;;;;;;14.00;8.25;;;;;9.07;45.68;102101.06;5077613;27;45614;-80
2023/03/28 06:44:36;;;;;;;;;6.00;6.00;;;;;9.10;46.17;102095.91;5075004;27;45523;-80
2023/03/28 06:47:02;;;;;;;;;9.50;6.00;;;;;9.04;45.99;102092.09;5071416;27;45370;-78
2023/03/28 06:49:27;;;;;;;;;10.00;7.50;;;;;8.92;45.55;102075.41;5084305;28;46312;-78
2023/03/28 06:51:59;;;;;;;;;12.00;11.00;;;;;8.92;45.93;102093.16;5079651;28;45532;-79
2023/03/28 06:54:25;;;;;;;;;14.00;11.75;;;;;8.69;45.33;102035.94;5084871;28;45275;-79
2023/03/28 06:56:50;;;;;;;;;9.00;7.75;;;;;8.99;45.80;102081.97;5063726;27;45283;-80
2023/03/28 06:59:18;;;;;;;;;7.00;6.75;;;;;9.03;45.48;102086.66;5075624;27;45804;-78
2023/03/28 07:01:44;;;;;;;;;10.50;9.25;;;;;8.96;46.72;102087.16;5076625;27;45471;-80
2023/03/28 07:04:09;;;;;;;;;10.50;10.25;;;;;8.81;47.28;102068.56;5075578;27;45756;-79
2023/03/28 07:06:35;;;;;;;;;12.75;9.50;;;;;8.92;47.27;102083.41;5074885;28;45941;-81
2023/03/28 07:09:00;;;;;;;;;9.75;7.50;;;;;8.86;46.14;102064.44;5076142;27;46108;-80
2023/03/28 07:11:25;;;;;;;;;11.50;9.00;;;;;8.77;47.23;102045.28;5076205;27;45207;-79
2023/03/28 07:13:51;;;;;;;;;9.75;7.00;;;;;8.70;47.24;102036.03;5075928;27;45428;-81
2023/03/28 07:16:17;;;;;;;;;13.00;9.75;;;;;8.84;47.28;102051.03;5075208;27;45405;-80
2023/03/28 07:18:44;;;;;;;;;11.50;9.50;;;;;8.60;47.43;102037.28;5072843;27;46388;-79
2023/03/28 07:21:13;;;;;;;;;11.75;9.25;;;;;8.70;47.22;102048.44;5069990;28;45599;-79
2023/03/28 07:23:39;;;;;;;;;10.75;9.50;;;;;8.75;46.81;102047.84;5074965;28;45294;-80
2023/03/28 07:26:08;;;;;;;;;12.50;10.00;;;;;8.65;47.54;102018.88;5076649;27;45519;-78
2023/03/28 07:28:34;;;;;;;;;11.50;10.00;;;;;8.71;47.43;102021.88;5076561;27;46686;-80
2023/03/28 07:31:01;;;;;;;;;13.50;10.25;;;;;8.88;47.01;102053.88;5074379;28;45432;-79
2023/03/28 07:33:27;;;;;;;;;10.50;10.50;;;;;8.86;47.50;102053.78;5076457;28;45531;-80
2023/03/28 07:35:53;;;;;;;;;11.50;9.75;;;;;8.97;46.14;102068.56;5074779;27;45435;-79
2023/03/28 07:38:18;;;;;;;;;14.50;10.75;;;;;9.01;46.10;102067.91;5067931;28;46258;-80
2023/03/28 07:40:57;;;;;;;;;12.75;9.00;;;;;8.95;46.12;102070.25;5069946;28;45308;-79
2023/03/28 07:43:23;;;;;;;;;9.75;9.00;;;;;8.93;46.84;102058.59;5076773;28;45471;-81
2023/03/28 07:45:48;;;;;;;;;11.50;7.75;;;;;8.62;46.05;101998.31;5076768;28;46248;-79
2023/03/28 07:48:13;;;;;;;;;14.50;11.00;;;;;9.14;45.52;102073.91;5075923;27;47016;-80
2023/03/28 07:50:40;;;;;;;;;13.75;12.75;;;;;9.22;45.58;102075.22;5082563;28;45203;-80
2023/03/28 07:53:06;;;;;;;;;13.00;13.00;;;;;9.28;45.36;102074.66;5073962;28;45382;-81
2023/03/28 07:55:35;;;;;;;;;12.00;10.00;;;;;9.32;45.73;102063.28;5069139;28;45496;-81
2023/03/28 07:58:06;;;;;;;;;19.25;18.50;;;;;9.35;45.19;102055.47;5067138;28;46849;-80
2023/03/28 08:00:31;;;;;;;;;16.75;14.00;;;;;9.32;45.07;102044.63;5045760;28;46136;-81
2023/03/28 08:02:57;;;;;;;;;15.50;13.00;;;;;9.54;45.79;102078.69;5072667;28;45411;-80
2023/03/28 08:05:22;;;;;;;;;11.00;11.00;;;;;9.56;45.63;102066.34;5072238;27;45286;-80
2023/03/28 08:07:48;;;;;;;;;11.50;10.00;;;;;9.47;44.93;102032.09;5075505;27;45422;-81
2023/03/28 08:10:13;;;;;;;;;14.25;12.50;;;;;9.81;45.24;102070.25;5066841;28;45461;-79
2023/03/28 08:12:39;;;;;;;;;14.00;8.50;;;;;9.93;44.34;102078.88;5067867;28;45159;-81
2023/03/28 08:15:05;;;;;;;;;11.75;10.25;;;;;9.77;44.31;102031.84;5084347;27;45671;-81
2023/03/28 08:17:31;;;;;;;;;16.25;13.25;;;;;10.08;44.29;102071.66;5074454;27;46021;-80
2023/03/28 08:19:56;;;;;;;;;12.75;9.25;;;;;10.11;43.29;102054.84;5075739;27;45389;-81
2023/03/28 08:22:22;;;;;;;;;15.75;12.00;;;;;10.27;43.44;102068.13;5061987;28;45615;-81
2023/03/28 08:24:47;;;;;;;;;12.50;10.50;;;;;10.32;43.69;102069.28;5066014;28;46520;-82
2023/03/28 08:27:13;;;;;;;;;16.50;12.00;;;;;10.37;42.83;102073.94;5066042;28;46862;-80
2023/03/28 08:29:38;;;;;;;;;16.50;13.00;;;;;10.45;42.74;102068.13;5064666;27;46747;-80
2023/03/28 08:32:05;;;;;;;;;13.75;8.00;;;;;10.52;42.55;102072.00;5066186;27;45619;-82
2023/03/28 08:34:30;;;;;;;;;12.25;9.25;;;;;10.45;42.46;102054.78;5088217;28;45561;-81
2023/03/28 08:36:56;;;;;;;;;12.00;10.75;;;;;10.49;42.38;102053.16;5078859;27;47102;-80
2023/03/28 08:39:22;;;;;;;;;11.75;8.75;;;;;10.23;41.80;102023.41;5084821;28;45193;-80
2023/03/28 08:42:25;;;;;;;;;16.00;9.75;;;;;10.56;41.54;102073.06;5076038;28;45377;-83
2023/03/28 08:45:18;;;;;;;;;8.75;8.75;;;;;10.51;41.67;102063.09;5078545;28;45274;-80
2023/03/28 08:48:23;;;;;;;;;9.25;6.00;;;;;10.60;41.13;102070.63;5080758;27;46897;-81
2023/03/28 08:51:30;;;;;;;;;10.50;9.50;;;;;10.61;41.08;102069.78;5080082;27;45310;-80
2023/03/28 08:54:20;;;;;;;;;11.75;11.25;;;;;10.62;41.14;102065.34;5074887;28;45695;-80
2023/03/28 08:56:50;;;;;;;;;13.00;9.50;;;;;10.69;40.76;102051.41;5066346;27;45608;-81
2023/03/28 08:59:20;;;;;;;;;10.25;9.00;;;;;10.78;40.93;102051.84;5083713;28;46687;-80
2023/03/28 09:01:46;;;;;;;;;7.75;7.75;;;;;10.85;39.87;102053.97;5087246;27;45087;-80
2023/03/28 09:04:34;;;;;;;;;11.25;7.50;;;;;10.80;40.00;102051.94;5075167;27;45449;-81
2023/03/28 09:07:35;;;;;;;;;5.50;4.75;;;;;10.82;39.07;102050.22;5055557;28;45573;-79
2023/03/28 09:10:06;;;;;;;;;7.50;5.00;;;;;10.82;39.04;102034.19;5056402;28;46223;-80
2023/03/28 09:13:01;;;;;;;;;5.75;5.50;;;;;10.74;39.14;102020.50;5070089;28;45510;-80
2023/03/28 09:15:36;;;;;;;;;4.50;4.50;;;;;10.86;38.83;102026.38;5072351;28;45386;-79
2023/03/28 09:18:21;;;;;;;;;12.50;5.50;;;;;10.94;38.22;102036.50;5074443;28;45618;-79
2023/03/28 09:21:07;;;;;;;;;5.25;5.25;;;;;10.99;38.19;102045.69;5061675;28;45582;-80
2023/03/28 09:24:10;;;;;;;;;12.50;8.50;;;;;11.07;38.16;102029.13;5065424;27;45440;-79
2023/03/28 09:26:46;;;;;;;;;7.00;7.00;;;;;11.16;38.37;102023.25;5025412;28;45443;-79
2023/03/28 09:29:17;;;;;;;;;6.00;6.00;;;;;11.28;38.67;102033.59;5058556;28;45515;-79
2023/03/28 09:31:47;;;;;;;;;11.75;9.00;;;;;11.28;37.97;102027.34;5064694;28;47308;-79
2023/03/28 09:34:19;;;;;;;;;8.75;4.75;;;;;11.31;38.02;102016.78;5075120;28;45397;-80
2023/03/28 09:36:52;;;;;;;;;6.75;5.00;;;;;11.40;37.53;102020.75;5076497;27;45490;-77
2023/03/28 09:39:41;;;;;;;;;19.00;16.50;;;;;11.45;36.94;102010.28;5071036;27;45495;-81
2023/03/28 09:42:22;;;;;;;;;6.00;5.00;;;;;11.49;37.27;102006.84;5064442;28;47852;-80
2023/03/28 09:45:01;;;;;;;;;7.75;6.00;;;;;11.59;37.30;102005.50;5076356;27;45541;-79
2023/03/28 09:47:27;;;;;;;;;3.25;2.50;;;;;11.50;37.55;101965.88;5072504;28;45450;-79
2023/03/28 09:49:52;;;;;;;;;6.50;5.25;;;;;11.71;37.55;101986.34;5070682;28;45401;-78
2023/03/28 09:52:20;;;;;;;;;7.75;5.75;;;;;11.66;36.42;101959.38;5074592;27;45860;-80
2023/03/28 09:54:47;;;;;;;;;5.00;3.75;;;;;11.90;37.29;101977.31;5070129;27;45299;-78
2023/03/28 09:57:12;;;;;;;;;6.00;5.00;;;;;11.91;37.47;101972.06;5068283;28;45401;-79
2023/03/28 09:59:37;;;;;;;;;4.75;4.75;;;;;11.67;36.34;101931.78;5069511;27;45584;-78
2023/03/28 10:02:04;;;;;;;;;4.00;4.00;;;;;11.98;36.74;101971.44;5071447;28;45580;-78
2023/03/28 10:04:35;;;;;;;;;5.75;5.75;;;;;12.02;36.74;101968.91;5079064;27;45479;-79
2023/03/28 10:07:09;;;;;;;;;4.75;3.00;;;;;12.08;36.07;101971.84;5072170;28;45364;-79
2023/03/28 10:09:53;;;;;;;;;3.75;3.75;;;;;12.12;36.18;101973.75;5079441;28;45429;-80
2023/03/28 10:12:34;;;;;;;;;2.00;2.00;;;;;12.18;35.31;101963.28;5081051;28;47362;-80
2023/03/28 10:15:00;;;;;;;;;4.50;4.00;;;;;12.11;35.56;101945.13;5064369;28;45880;-78
2023/03/28 10:17:36;;;;;;;;;5.25;3.00;;;;;12.24;35.95;101942.13;5071996;27;45491;-78
2023/03/28 10:20:20;;;;;;;;;5.00;5.00;;;;;12.44;34.79;101960.69;5082274;28;45274;-80
2023/03/28 10:22:49;;;;;;;;;4.00;3.00;;;;;12.38;33.91;101933.69;5076053;28;45468;-79
2023/03/28 10:25:19;;;;;;;;;11.50;7.00;;;;;12.38;34.44;101941.72;5063584;28;45362;-79
2023/03/28 10:27:46;;;;;;;;;4.00;3.00;;;;;12.46;33.76;101953.66;5078859;28;45424;-80
2023/03/28 10:30:51;;;;;;;;;4.25;4.25;;;;;12.37;34.24;101926.50;5077435;28;45409;-78
2023/03/28 10:33:16;;;;;;;;;4.75;4.75;;;;;12.52;34.78;101949.44;5064547;27;45475;-80
2023/03/28 10:35:52;;;;;;;;;4.25;3.50;;;;;12.56;35.56;101949.56;5080585;28;45432;-79
2023/03/28 10:38:19;;;;;;;;;4.50;3.00;;;;;12.52;34.59;101937.78;5079854;27;45383;-78
2023/03/28 10:41:21;;;;;;;;;5.00;5.00;;;;;12.68;33.93;101945.53;5077477;28;45504;-79
2023/03/28 10:43:47;;;;;;;;;7.25;3.50;;;;;12.76;34.17;101937.78;5068028;28;45183;-79
2023/03/28 10:46:15;;;;;;;;;7.75;3.00;;;;;12.76;34.23;101932.41;5064100;28;45314;-80
2023/03/28 10:48:47;;;;;;;;;7.50;6.25;;;;;12.75;33.99;101945.78;5078033;27;45457;-80
2023/03/28 10:51:22;;;;;;;;;3.25;3.00;;;;;12.67;34.29;101946.41;5075305;28;45592;-80
2023/03/28 10:54:06;;;;;;;;;4.75;3.75;;;;;12.64;34.72;101932.88;5072041;28;45474;-77
2023/03/28 10:56:40;;;;;;;;;7.75;6.75;;;;;12.37;34.73;101867.53;5071693;28;45354;-78
2023/03/28 10:59:45;;;;;;;;;8.50;6.25;;;;;12.70;34.91;101909.00;5087119;27;45239;-78
2023/03/28 11:02:32;;;;;;;;;13.50;13.50;;;;;12.84;34.28;101916.63;5075279;28;45481;-79
2023/03/28 11:05:16;;;;;;;;;6.50;3.75;;;;;12.84;34.63;101903.22;5082830;28;46706;-78
2023/03/28 11:07:59;;;;;;;;;4.75;4.75;;;;;12.86;34.47;101905.06;5081470;27;46387;-80
2023/03/28 11:10:33;;;;;;;;;6.50;5.50;;;;;12.89;34.40;101906.97;5079311;28;45411;-80
2023/03/28 11:13:39;;;;;;;;;8.00;4.25;;;;;12.86;33.80;101907.75;5078845;28;45622;-80
2023/03/28 11:16:10;;;;;;;;;5.25;4.00;;;;;12.93;34.10;101892.78;5070884;28;46217;-77
2023/03/28 11:19:03;;;;;;;;;5.00;4.50;;;;;12.96;33.90;101902.72;5076917;27;45530;-77
2023/03/28 11:21:47;;;;;;;;;17.75;15.75;;;;;12.94;34.54;101888.34;5067142;27;45646;-80
2023/03/28 11:24:37;;;;;;;;;8.00;4.50;;;;;12.97;35.13;101883.06;5071399;28;45060;-79
2023/03/28 11:27:07;;;;;;;;;4.50;4.50;;;;;13.03;34.37;101881.53;5069077;28;46599;-79
2023/03/28 11:29:48;;;;;;;;;6.25;4.00;;;;;13.02;34.54;101886.84;5076883;27;45364;-79
2023/03/28 11:32:22;;;;;;;;;4.50;4.25;;;;;12.98;34.85;101899.22;5076963;27;45292;-79
2023/03/28 11:35:14;;;;;;;;;8.00;6.50;;;;;13.00;34.55;101896.59;5072038;28;45541;-79
2023/03/28 11:37:55;;;;;;;;;6.50;5.00;;;;;13.09;35.60;101868.31;5074192;28;47061;-77
2023/03/28 11:40:48;;;;;;;;;7.25;6.00;;;;;12.94;35.59;101832.03;5064029;28;45324;-78
2023/03/28 11:43:23;;;;;;;;;4.00;3.00;;;;;13.08;35.69;101849.47;5069555;28;45373;-78
2023/03/28 11:45:57;;;;;;;;;7.75;4.50;;;;;13.18;35.14;101850.69;5073882;27;45824;-76
2023/03/28 11:48:27;;;;;;;;;9.75;4.50;;;;;12.90;34.87;101797.03;5067481;28;46186;-76